Terminal Aerodrome Forecast
Issued by NWS Northern Indiana

Home | Current Version | Previous Version | Graphics & Text | Print | Product List | Glossary On
Versions: 1 2 3 4 5 6 7 8 9 10 11 12 13 14 15 16
000
FTUS43 KIWX 290520
TAFFWA
TAF
KFWA 290520Z 2906/3006 VRB03KT P6SM SCT250
     FM291400 23007KT P6SM SCT040 BKN100
      TEMPO 2916/2918 4SM -TSRA BKN040CB
     FM291800 27008KT P6SM BKN050=

USA.gov is the U.S. government's official web portal to all federal, state and local government web resources and services.